N600 KIAH-KJAX
Flight info
| Callsign | N600 |
|---|---|
| Flight time | N/A |
| Altitude | 41000 |
| Route | MMUGS4 LCH LSU SJI J2 CEW SZW TAY |
| Aircraft | C25C/M-SDE2E3FGHRWXY/LB1 |
Departure
| Time | 2025-09-09 21:53 |
|---|---|
| Airport | George Bush Intercontinental Airport (KIAH) |
Arrival
| Time | N/A |
|---|---|
| Airport | Jacksonville International Airport (KJAX) |
| Time | Latitude | Longitude | Altitude | Speed | Heading |
|---|---|---|---|---|---|
| 2025-09-09 21:33 | 29.97193 | -95.34303 | 92 ft | 0 kts | 243° |
| 2025-09-09 21:42 | 29.97198 | -95.34280 | 92 ft | 2 kts | 279° |
| 2025-09-09 21:42 | 29.97195 | -95.34273 | 92 ft | 0 kts | 313° |
| 2025-09-09 21:46 | 29.97240 | -95.34375 | 92 ft | 11 kts | 268° |
| 2025-09-09 21:46 | 29.97172 | -95.34557 | 93 ft | 14 kts | 268° |
| 2025-09-09 21:46 | 29.97241 | -95.34624 | 95 ft | 14 kts | 333° |
| 2025-09-09 21:47 | 29.97421 | -95.34737 | 92 ft | 15 kts | 332° |
| 2025-09-09 21:47 | 29.97616 | -95.34857 | 92 ft | 16 kts | 333° |
| 2025-09-09 21:48 | 29.97822 | -95.34981 | 95 ft | 17 kts | 332° |
| 2025-09-09 21:49 | 29.98145 | -95.35179 | 94 ft | 18 kts | 332° |
| 2025-09-09 21:49 | 29.98374 | -95.35319 | 93 ft | 19 kts | 332° |
| 2025-09-09 21:50 | 29.98614 | -95.35466 | 93 ft | 20 kts | 332° |
| 2025-09-09 21:50 | 29.98772 | -95.35620 | 94 ft | 9 kts | 242° |
| 2025-09-09 21:50 | 29.98744 | -95.35680 | 96 ft | 8 kts | 241° |
| 2025-09-09 21:51 | 29.98663 | -95.35711 | 97 ft | 0 kts | 152° |
| 2025-09-09 21:52 | 29.98010 | -95.35308 | 161 ft | 149 kts | 150° |
| 2025-09-09 21:53 | 29.95018 | -95.32086 | 2840 ft | 265 kts | 130° |
| 2025-09-09 21:53 | 29.92506 | -95.28812 | 3880 ft | 252 kts | 131° |
| 2025-09-09 21:54 | 29.90375 | -95.26200 | 4825 ft | 197 kts | 132° |
| 2025-09-09 21:54 | 29.88678 | -95.24174 | 5617 ft | 162 kts | 132° |
| 2025-09-09 21:54 | 29.87957 | -95.23251 | 5953 ft | 147 kts | 127° |
| 2025-09-09 21:55 | 29.86814 | -95.21574 | 6619 ft | 118 kts | 126° |
| 2025-09-09 21:55 | 29.85814 | -95.20097 | 7227 ft | 146 kts | 128° |